My Meet Scores
Julie Ratzki, The Gymnastics Shop - MyMeetScores.com
Top100 | Top Teams | Upcoming Meets | Completed Meets | Latest | Add Scores | Help| Support | Bookmark and Share

Julie Ratzki, The Gymnastics Shop
Personal Bests
LevelVault BarsBeamFloorAA
39.4759.700 9.5259.45037.875
49.1509.725 9.2259.32537.225
59.2008.950 9.1759.15036.475
79.0759.225 9.3009.40036.250
Meet Scores
Date Meet Team Session Level Division Vault Bars Beam Floor AA
2022-04-28 Region 5 Level 6-8 Regional Championship The Gymnastics Shop A11 7 Jr B2 9.000 30T 8.000 27 9.300 21 9.400 24 35.700 23
2022-04-27 2022 Region 5 Level 6,7,8 Championships The Gymnastics Shop A11 7 Jr B2 9.000 30T 8.000 27 9.300 21 9.400 24 35.700 23
2022-04-01 Level 6-7-8 State 2022 The Gymnastics Shop 06 7 Jr B 9.025 20 8.950 9* 8.850 12T 9.250 18 36.075 12T
2022-03-10 Lucky Invite The Gymnastics Shop A04 7 Middle 8.900 6T 9.225 4T 8.275 16 9.225 8T 35.625 9
2022-02-11 SCGA Classic 2022 The Gymnastics Shop F2 7 Jr C 9.075 8T 9.100 7T 9.225 5 8.850 10 36.250 6
2022-01-14 Leenda%27s Island Adventure The Gymnastics Shop P03 7 Jr C 8.750 11 7.625 10 8.000 9 9.175 8 33.550 11
2022-01-07 St Jude Benefit Meet 2022 The Gymnastics Shop 3B 7 Sr A 8.625 13T 8.850 4 8.100 8T 9.200 4T 34.775 5T
2021-12-17 2021 Women%27s Hawaiian Pineapple Invitational The Gymnastics Shop 3A 7 Maui 8.450 13 9.025 8 8.850 8 9.200 6 35.525 8
2021-03-18 Level 5 & Xcel Gold State The Gymnastics Shop 2 5 Sr A 9.200 15 8.950 21T 9.175 13T 9.150 13 36.475 17
2021-03-12 LUCKY INVITATIONAL The Gymnastics Shop A01 5 Jr B 8.900 8 8.575 12 8.925 9T 9.125 7 35.525 9
2020-02-22 I-Power Classic The Gymnastics Shop 4 5 JR 8.850 13 8.700 9 8.250 12 8.775 10 34.575 11
2020-01-24 Uga Invitational The Gymnastics Shop B1 5 Ch B 8.850 7T 8.425 10 8.050 10T 8.750 10 34.075 10
2019-12-20 2019 Women's Hawaiian Pineapple Classic The Gymnastics Shop 4B 5 Age 10 9.075 3 8.200 12T 8.675 6 8.000 10T 33.950 9
2019-12-06 Ultimate Wish Classic The Gymnastics Shop 6B 5 JR A 9.150 1 8.500 6 8.600 4 8.775 8T 35.025 3
2019-11-08 Illinois Judges Cup The Gymnastics Shop P4 5 All Ages 8.500 32T 7.500 44 8.500 29T 8.900 9T 33.400 34
2019-03-22 Illinois Gymnastics State Championships The Gymnastics Shop 6 4 YT B 9.150 6 9.725 3T 9.100 15 9.250 8T 37.225 6
2019-02-23 Kinetic Classic 2019 The Gymnastics Shop 1 4 Younger 8.500 28 9.400 8T 9.225 8 9.325 4T 36.450 8T
2019-01-25 UGA Invitational The Gymnastics Shop B06 4 Ch B 8.325 11 9.475 2T 8.750 12 9.000 5T 35.550 10
2019-01-11 Legacy Elite Classic The Gymnastics Shop 6B 4 JrA 7.700 10 9.450 1 8.850 5 9.000 4 35.000 2
2018-12-14 Hawaiian Pineapple Classic The Gymnastics Shop 1B 4 Age9 8.575 8 9.375 2 9.200 4 8.525 8 35.675 3
2018-11-30 Ultimate Wish Classic The Gymnastics Shop 11 4 JR B 9.000 4 9.400 3 9.000 6T 9.225 4 36.625 5
2018-05-03 Illinois USA Gymnastics Level 3 State Championships The Gymnastics Shop 3 3 Youth D 9.475 10T 9.600 2T 9.525 1 9.275 9T 37.875 1
2018-03-09 Lucky Invitational The Gymnastics Shop B03 3 Jr B 9.300 5T 9.700 1 8.725 12 9.450 3T 37.175 3
2018-02-23 Kinetic Classic The Gymnastics Shop 5 3 Middle 9.100 23T 9.300 39T 9.200 27T 9.450 16T 37.050 23
2018-01-12 Legacy Elite Winter Classic The Gymnastics Shop 2 3 ChildB 9.350 4T 9.100 3T 8.900 2T 9.150 4 36.500 3
2017-12-14 2017 Women's Hawaiian Pineapple Classic The Gymnastics Shop 4A 3 Age8 8.950 11T 8.900 6T 7.650 18 9.150 4 34.650 13
2017-12-01 Ultimate Wish Classic The Gymnastics Shop 4 3 JR2 9.000 7 8.425 11 8.400 11 9.125 3 34.950 9
Get your scores on
a t-shirt, pin, or hoodie